createdAt,value
2022-09-23T00:00:48.067Z,9.82
2022-09-23T00:06:03.661Z,18.27
2022-09-23T00:08:31.392Z,16.50
2022-09-23T00:11:04.794Z,34.05
2022-09-23T00:13:32.989Z,13.48
2022-09-23T00:16:02.876Z,15.45
2022-09-23T00:18:30.036Z,14.98
2022-09-23T00:21:02.863Z,12.93
2022-09-23T00:23:30.157Z,15.50
2022-09-23T00:25:58.187Z,12.07
2022-09-23T00:28:26.228Z,13.77
2022-09-23T00:30:53.789Z,11.30
2022-09-23T00:33:21.357Z,13.27
2022-09-23T00:35:49.362Z,10.27
2022-09-23T00:38:18.207Z,11.48
2022-09-23T00:40:46.258Z,12.07
2022-09-23T00:43:14.886Z,11.48
2022-09-23T00:45:46.856Z,12.52
2022-09-23T00:48:18.152Z,11.07
2022-09-23T00:50:49.706Z,16.33
2022-09-23T00:53:22.783Z,11.20
2022-09-23T00:55:53.221Z,13.95
2022-09-23T00:58:25.377Z,17.08
2022-09-23T01:00:53.180Z,12.75
2022-09-23T01:03:21.252Z,11.77
2022-09-23T01:05:49.767Z,13.88
2022-09-23T01:08:19.385Z,13.05
2022-09-23T01:10:59.229Z,11.20
2022-09-23T01:13:35.937Z,13.70
2022-09-23T01:16:08.612Z,13.65
2022-09-23T01:18:46.473Z,13.43
2022-09-23T01:21:23.178Z,14.82
2022-09-23T01:24:13.133Z,23.80
2022-09-23T01:26:58.554Z,14.55
2022-09-23T01:30:18.120Z,13.23
2022-09-23T01:33:05.340Z,12.45
2022-09-23T01:35:46.513Z,13.55
2022-09-23T01:38:27.041Z,13.48
2022-09-23T01:41:02.876Z,14.90
2022-09-23T01:43:37.956Z,15.73
2022-09-23T01:46:11.317Z,36.50
2022-09-23T01:48:45.412Z,25.02
2022-09-23T01:51:16.434Z,17.02
2022-09-23T01:53:49.391Z,16.80
2022-09-23T01:56:22.473Z,12.85
2022-09-23T02:01:27.402Z,10.93
2022-09-23T02:04:01.484Z,16.58
2022-09-23T02:06:33.734Z,14.50
2022-09-23T02:09:05.361Z,12.35
2022-09-23T02:11:35.020Z,15.07
2022-09-23T02:14:09.417Z,15.75
2022-09-23T02:16:43.470Z,11.10
2022-09-23T02:19:18.748Z,14.63
2022-09-23T02:21:53.015Z,10.38
2022-09-23T02:24:23.040Z,17.98
2022-09-23T02:26:54.693Z,14.75
2022-09-23T02:29:28.755Z,15.20
2022-09-23T02:32:00.008Z,11.35
2022-09-23T02:34:43.145Z,10.52
2022-09-23T02:37:21.076Z,11.07
2022-09-23T02:39:56.474Z,15.52
2022-09-23T02:42:32.829Z,16.60
2022-09-23T02:45:00.324Z,11.45
2022-09-23T02:47:32.546Z,12.13
2022-09-23T02:50:01.680Z,15.30
2022-09-23T02:52:29.653Z,13.82
2022-09-23T02:54:57.536Z,16.70
2022-09-23T02:57:24.973Z,13.98
2022-09-23T02:59:52.789Z,15.38
2022-09-23T03:02:40.025Z,12.88
2022-09-23T03:05:19.116Z,11.43
2022-09-23T03:07:55.886Z,10.88
2022-09-23T03:10:30.045Z,12.85
2022-09-23T03:13:06.681Z,10.80
2022-09-23T03:15:38.906Z,12.50
2022-09-23T03:18:15.003Z,12.15
2022-09-23T03:20:48.765Z,10.70
2022-09-23T03:23:19.956Z,10.43
2022-09-23T03:25:50.403Z,10.73
2022-09-23T03:28:18.965Z,11.25
2022-09-23T03:30:46.598Z,9.77
2022-09-23T03:33:17.827Z,12.05
2022-09-23T03:35:53.174Z,10.55
2022-09-23T03:38:26.074Z,8.23
2022-09-23T03:40:58.239Z,10.13
2022-09-23T03:43:26.526Z,8.93
2022-09-23T03:45:54.629Z,9.57
2022-09-23T03:48:22.122Z,9.02
2022-09-23T03:50:51.571Z,6.82
2022-09-23T03:53:18.954Z,8.20
2022-09-23T03:55:46.305Z,10.65
2022-09-23T03:58:14.045Z,11.43
2022-09-23T04:00:41.423Z,10.07
2022-09-23T04:03:11.730Z,12.57
2022-09-23T04:05:39.620Z,11.27
2022-09-23T04:08:08.899Z,10.85
2022-09-23T04:10:36.185Z,9.98
2022-09-23T04:13:04.004Z,12.13
2022-09-23T04:15:31.296Z,12.40
2022-09-23T04:17:58.564Z,13.27
2022-09-23T04:20:26.479Z,16.05
2022-09-23T04:22:53.775Z,14.05
2022-09-23T04:25:22.651Z,12.32
2022-09-23T04:27:50.334Z,10.80
2022-09-23T04:30:17.770Z,12.20
2022-09-23T04:32:45.069Z,12.43
2022-09-23T04:35:12.902Z,14.70
2022-09-23T04:37:40.117Z,64.63
2022-09-23T04:40:09.430Z,15.68
2022-09-23T04:42:39.004Z,16.95
2022-09-23T04:45:08.024Z,14.80
2022-09-23T04:47:35.285Z,10.32
2022-09-23T04:50:03.297Z,13.82
2022-09-23T04:52:31.076Z,32.30
2022-09-23T04:54:58.511Z,11.90
2022-09-23T04:57:26.144Z,11.75
2022-09-23T04:59:55.196Z,10.85
2022-09-23T05:02:22.816Z,15.95
2022-09-23T05:04:50.539Z,24.73
2022-09-23T05:07:18.053Z,18.63
2022-09-23T05:09:45.548Z,28.10
2022-09-23T05:12:13.303Z,24.63
2022-09-23T05:14:40.720Z,19.80
2022-09-23T05:17:09.606Z,15.18
2022-09-23T05:19:37.527Z,12.50
2022-09-23T05:22:04.914Z,12.70
2022-09-23T05:24:32.236Z,20.38
2022-09-23T05:26:59.760Z,20.42
2022-09-23T05:29:27.048Z,17.42
2022-09-23T05:31:54.384Z,15.27
2022-09-23T05:34:29.584Z,14.13
2022-09-23T05:36:57.083Z,16.00
2022-09-23T05:39:24.870Z,17.98
2022-09-23T05:41:52.260Z,16.80
2022-09-23T05:44:20.267Z,16.58
2022-09-23T05:46:48.082Z,14.32
2022-09-23T05:49:15.989Z,13.85
2022-09-23T05:51:44.717Z,16.73
2022-09-23T05:54:12.569Z,18.20
2022-09-23T05:56:39.901Z,16.85
2022-09-23T05:59:07.372Z,16.70
2022-09-23T06:01:35.884Z,19.17
2022-09-23T06:04:05.473Z,16.27
2022-09-23T06:06:36.270Z,19.23
2022-09-23T06:09:06.642Z,17.42
2022-09-23T06:11:35.805Z,18.23
2022-09-23T06:14:04.123Z,18.02
2022-09-23T06:16:34.498Z,17.52
2022-09-23T06:19:05.397Z,14.88
2022-09-23T06:21:36.407Z,17.42
2022-09-23T06:24:06.770Z,14.57
2022-09-23T06:26:34.868Z,15.80
2022-09-23T06:29:03.694Z,15.73
2022-09-23T06:31:31.138Z,16.40
2022-09-23T06:34:12.806Z,14.95
2022-09-23T06:36:44.984Z,15.95
2022-09-23T06:39:15.405Z,13.57
2022-09-23T06:41:48.998Z,12.75
2022-09-23T06:44:24.223Z,13.25
2022-09-23T06:46:59.801Z,16.90
2022-09-23T06:49:27.485Z,16.58
2022-09-23T06:51:54.806Z,15.52
2022-09-23T06:54:23.668Z,17.52
2022-09-23T06:56:51.385Z,20.70
2022-09-23T06:59:18.783Z,19.25
2022-09-23T07:01:46.545Z,20.25
2022-09-23T07:04:14.606Z,18.10
2022-09-23T07:06:41.941Z,13.55
2022-09-23T07:09:09.533Z,14.63
2022-09-23T07:11:39.140Z,16.13
2022-09-23T07:14:07.269Z,12.52
2022-09-23T07:16:34.971Z,12.30
2022-09-23T07:19:03.228Z,11.48
2022-09-23T07:21:30.909Z,11.68
2022-09-23T07:23:58.377Z,10.88
2022-09-23T07:26:26.988Z,11.88
2022-09-23T07:28:56.945Z,10.93
2022-09-23T07:31:37.965Z,11.55
2022-09-23T07:34:08.789Z,11.75
2022-09-23T07:36:36.078Z,8.23
2022-09-23T07:39:03.612Z,10.50
2022-09-23T07:41:33.037Z,11.15
2022-09-23T07:44:02.173Z,7.15
2022-09-23T07:46:32.118Z,9.20
2022-09-23T07:49:00.016Z,10.38
2022-09-23T07:51:34.777Z,9.27
2022-09-23T07:54:05.200Z,8.57
2022-09-23T07:56:32.828Z,9.80
2022-09-23T07:59:01.575Z,12.43
2022-09-23T08:01:31.801Z,10.32
2022-09-23T08:04:00.849Z,11.65
2022-09-23T08:06:28.253Z,10.90
2022-09-23T08:08:58.152Z,11.60
2022-09-23T08:11:26.492Z,11.02
2022-09-23T08:13:53.909Z,9.20
2022-09-23T08:16:23.105Z,9.82
2022-09-23T08:18:50.614Z,8.25
2022-09-23T08:21:19.862Z,11.07
2022-09-23T08:23:47.891Z,8.63
2022-09-23T08:26:20.993Z,9.07
2022-09-23T08:28:50.459Z,6.90
2022-09-23T08:31:17.795Z,6.53
2022-09-23T08:33:46.883Z,6.93
2022-09-23T08:36:14.548Z,7.45
2022-09-23T08:38:42.292Z,9.82
2022-09-23T08:41:17.226Z,6.25
2022-09-23T08:43:48.791Z,7.22
2022-09-23T08:46:22.316Z,7.68
2022-09-23T08:48:52.755Z,5.38
2022-09-23T08:51:25.695Z,5.90
2022-09-23T08:53:53.415Z,5.90
2022-09-23T08:56:23.487Z,8.68
2022-09-23T08:59:04.738Z,4.97
2022-09-23T09:01:41.667Z,8.63
2022-09-23T09:04:20.521Z,7.30
2022-09-23T09:06:54.293Z,6.80
2022-09-23T09:09:27.078Z,4.28
2022-09-23T09:12:01.530Z,7.07
2022-09-23T09:14:36.443Z,5.60
2022-09-23T09:17:07.385Z,3.90
2022-09-23T09:19:54.186Z,4.95
2022-09-23T09:22:33.263Z,5.72
2022-09-23T09:25:10.465Z,4.97
2022-09-23T09:27:40.913Z,4.97
2022-09-23T09:30:12.789Z,5.78
2022-09-23T09:32:48.128Z,4.20
2022-09-23T09:35:28.558Z,4.53
2022-09-23T09:37:56.253Z,3.67
2022-09-23T09:40:24.102Z,5.07
2022-09-23T09:42:51.799Z,4.63
2022-09-23T09:45:29.841Z,4.15
2022-09-23T09:48:06.592Z,4.28
2022-09-23T09:50:49.589Z,3.70
2022-09-23T09:53:21.626Z,3.78
2022-09-23T09:56:04.379Z,4.22
2022-09-23T09:58:43.403Z,4.07
2022-09-23T10:01:22.749Z,3.10
2022-09-23T10:03:54.311Z,3.97
2022-09-23T10:06:28.624Z,3.08
2022-09-23T10:09:17.220Z,2.75
2022-09-23T10:12:04.099Z,4.65
2022-09-23T10:14:31.407Z,4.78
2022-09-23T10:17:04.172Z,3.70
2022-09-23T10:19:32.742Z,2.45
2022-09-23T10:22:05.034Z,2.08
2022-09-23T10:24:34.915Z,2.20
2022-09-23T10:27:04.901Z,2.85
2022-09-23T10:29:34.068Z,2.50
2022-09-23T10:32:20.811Z,3.22
2022-09-23T10:34:52.347Z,3.05
2022-09-23T10:37:32.918Z,2.72
2022-09-23T10:40:12.080Z,1.92
2022-09-23T10:42:56.611Z,2.20
2022-09-23T10:45:28.342Z,2.65
2022-09-23T10:48:03.337Z,3.60
2022-09-23T10:50:41.939Z,3.72
2022-09-23T10:56:04.441Z,2.70
2022-09-23T10:59:13.496Z,2.33
2022-09-23T11:01:49.913Z,3.13
2022-09-23T11:04:38.809Z,2.35
2022-09-23T11:07:21.273Z,2.42
2022-09-23T11:10:23.183Z,3.33
2022-09-23T11:13:07.477Z,2.83
2022-09-23T11:15:44.778Z,3.00
2022-09-23T11:18:48.918Z,2.75
2022-09-23T11:21:50.145Z,3.75
2022-09-23T11:24:54.344Z,2.35
2022-09-23T11:27:40.597Z,3.22
2022-09-23T11:30:11.296Z,3.00
2022-09-23T11:32:58.042Z,2.88
2022-09-23T11:35:29.545Z,2.60
2022-09-23T11:38:05.173Z,3.08
2022-09-23T11:40:35.610Z,2.15
2022-09-23T11:43:14.924Z,3.03
2022-09-23T11:45:47.217Z,2.30
2022-09-23T11:48:18.921Z,2.70
2022-09-23T11:50:55.093Z,2.50
2022-09-23T11:53:29.392Z,3.08
2022-09-23T11:56:03.482Z,2.53
2022-09-23T12:01:13.006Z,3.50
2022-09-23T12:03:48.718Z,3.45
2022-09-23T12:06:21.483Z,2.45
2022-09-23T12:08:54.096Z,3.20
2022-09-23T12:11:30.125Z,2.80
2022-09-23T12:14:09.938Z,3.22
2022-09-23T12:16:57.993Z,5.78
2022-09-23T12:19:57.264Z,2.47
2022-09-23T12:22:43.377Z,2.35
2022-09-23T12:25:32.486Z,1.85
2022-09-23T12:28:05.308Z,3.90
2022-09-23T12:30:38.183Z,2.53
2022-09-23T12:33:16.603Z,4.90
2022-09-23T12:35:45.911Z,2.17
2022-09-23T12:38:19.155Z,2.25
2022-09-23T12:40:47.556Z,2.20
2022-09-23T12:43:20.203Z,2.58
2022-09-23T12:45:49.954Z,2.92
2022-09-23T12:48:47.118Z,2.80
2022-09-23T12:51:20.081Z,4.60
2022-09-23T12:53:56.085Z,2.90
2022-09-23T12:56:29.159Z,2.50
2022-09-23T12:59:20.563Z,3.90
2022-09-23T13:01:49.816Z,2.17
2022-09-23T13:04:35.821Z,4.78
2022-09-23T13:07:08.461Z,2.75
2022-09-23T13:09:41.452Z,3.45
2022-09-23T13:12:16.685Z,2.80
2022-09-23T13:14:47.251Z,2.75
2022-09-23T13:17:29.418Z,2.55
2022-09-23T13:20:05.985Z,3.47
2022-09-23T13:23:04.039Z,1.65
2022-09-23T13:25:34.883Z,1.73
2022-09-23T13:28:03.709Z,3.72
2022-09-23T13:30:31.054Z,2.78
2022-09-23T13:33:10.648Z,2.90
2022-09-23T13:35:42.119Z,3.63
2022-09-23T13:40:39.194Z,4.15
2022-09-23T13:43:13.956Z,4.53
2022-09-23T13:45:42.071Z,3.63
2022-09-23T13:48:13.753Z,2.95
2022-09-23T13:50:47.090Z,2.55
2022-09-23T13:53:22.021Z,2.05
2022-09-23T13:56:01.887Z,3.03
2022-09-23T13:58:31.038Z,2.88
2022-09-23T14:00:59.342Z,3.00
2022-09-23T14:03:35.897Z,2.15
2022-09-23T14:06:09.192Z,2.08
2022-09-23T14:08:39.203Z,2.95
2022-09-23T14:11:06.963Z,2.92
2022-09-23T14:13:43.279Z,2.65
2022-09-23T14:16:13.209Z,3.10
2022-09-23T14:18:45.623Z,3.08
2022-09-23T14:21:31.405Z,3.28
2022-09-23T14:24:12.257Z,3.17
2022-09-23T14:26:40.973Z,2.13
2022-09-23T14:29:15.382Z,2.97
2022-09-23T14:31:46.761Z,2.47
2022-09-23T14:34:44.909Z,2.63
2022-09-23T14:37:23.623Z,2.10
2022-09-23T14:39:54.567Z,2.45
2022-09-23T14:42:25.382Z,3.08
2022-09-23T14:44:52.820Z,2.97
2022-09-23T14:47:20.235Z,2.70
2022-09-23T14:49:50.522Z,2.05
2022-09-23T14:52:18.097Z,3.75
2022-09-23T14:54:46.864Z,2.90
2022-09-23T14:57:29.821Z,2.72
2022-09-23T15:00:00.541Z,3.15
2022-09-23T15:02:30.545Z,2.15
2022-09-23T15:05:14.165Z,3.63
2022-09-23T15:07:43.365Z,2.08
2022-09-23T15:10:18.012Z,3.05
2022-09-23T15:12:47.163Z,2.92
2022-09-23T15:15:16.061Z,1.50
2022-09-23T15:17:43.975Z,4.20
2022-09-23T15:20:23.203Z,2.28
2022-09-23T15:22:52.676Z,4.28
2022-09-23T15:25:22.199Z,1.88
2022-09-23T15:27:58.117Z,2.90
2022-09-23T15:30:26.362Z,2.35
2022-09-23T15:32:53.756Z,2.70
2022-09-23T15:35:24.769Z,3.58
2022-09-23T15:37:55.350Z,3.08
2022-09-23T15:40:25.432Z,1.80
2022-09-23T15:42:55.974Z,1.42
2022-09-23T15:45:29.713Z,2.67
2022-09-23T15:48:01.599Z,2.50
2022-09-23T15:50:30.348Z,2.50
2022-09-23T15:52:58.056Z,2.45
2022-09-23T15:55:25.852Z,4.40
2022-09-23T15:57:53.258Z,2.42
2022-09-23T16:03:05.864Z,1.73
2022-09-23T16:05:38.580Z,1.67
2022-09-23T16:08:09.252Z,5.93
2022-09-23T16:10:38.325Z,2.50
2022-09-23T16:13:10.347Z,1.77
2022-09-23T16:15:38.345Z,2.33
2022-09-23T16:18:06.410Z,2.30
2022-09-23T16:20:38.252Z,5.03
2022-09-23T16:25:35.222Z,2.05
2022-09-23T16:28:04.122Z,3.08
2022-09-23T16:30:34.037Z,3.67
2022-09-23T16:33:01.546Z,3.83
2022-09-23T16:35:31.586Z,1.88
2022-09-23T16:38:00.909Z,1.77
2022-09-23T16:40:28.342Z,3.95
2022-09-23T16:42:56.096Z,1.75
2022-09-23T16:45:23.534Z,2.70
2022-09-23T16:47:52.459Z,2.85
2022-09-23T16:50:23.208Z,2.83
2022-09-23T16:52:51.656Z,2.67
2022-09-23T16:55:20.829Z,4.32
2022-09-23T16:57:48.118Z,4.45
2022-09-23T17:00:16.290Z,2.78
2022-09-23T17:02:44.066Z,2.30
2022-09-23T17:05:11.501Z,3.38
2022-09-23T17:07:38.780Z,5.93
2022-09-23T17:10:07.602Z,3.60
2022-09-23T17:12:36.987Z,1.90
2022-09-23T17:15:08.180Z,4.78
2022-09-23T17:17:36.807Z,2.90
2022-09-23T17:20:06.300Z,4.32
2022-09-23T17:22:34.234Z,5.95
2022-09-23T17:25:02.079Z,6.07
2022-09-23T17:27:29.603Z,5.03
2022-09-23T17:29:58.625Z,6.22
2022-09-23T17:32:26.522Z,5.93
2022-09-23T17:34:53.997Z,6.45
2022-09-23T17:37:21.292Z,5.72
2022-09-23T17:39:49.412Z,4.28
2022-09-23T17:42:16.660Z,3.83
2022-09-23T17:44:44.039Z,4.95
2022-09-23T17:47:13.026Z,5.13
2022-09-23T17:49:40.295Z,7.07
2022-09-23T17:52:07.565Z,4.82
2022-09-23T17:54:35.211Z,4.05
2022-09-23T17:57:03.306Z,5.82
2022-09-23T17:59:30.704Z,5.13
2022-09-23T18:01:58.512Z,6.18
2022-09-23T18:04:27.753Z,7.22
2022-09-23T18:06:55.439Z,7.00
2022-09-23T18:09:23.484Z,10.30
2022-09-23T18:11:50.809Z,5.55
2022-09-23T18:14:20.769Z,3.90
2022-09-23T18:16:50.602Z,3.47
2022-09-23T18:19:19.731Z,6.15
2022-09-23T18:21:50.410Z,3.80
2022-09-23T18:24:31.863Z,3.70
2022-09-23T18:27:00.587Z,6.05
2022-09-23T18:29:28.366Z,4.53
2022-09-23T18:31:56.014Z,9.60
2022-09-23T18:34:23.800Z,3.92
2022-09-23T18:36:52.855Z,3.65
2022-09-23T18:39:20.350Z,6.13
2022-09-23T18:41:47.831Z,9.80
2022-09-23T18:44:16.240Z,9.20
2022-09-23T18:46:43.720Z,4.40
2022-09-23T18:49:11.045Z,5.28
2022-09-23T18:51:47.907Z,6.13
2022-09-23T18:54:17.358Z,12.07
2022-09-23T18:56:45.512Z,8.88
2022-09-23T18:59:14.392Z,9.02
2022-09-23T19:01:42.354Z,7.13
2022-09-23T19:04:10.259Z,11.82
2022-09-23T19:06:37.658Z,11.75
2022-09-23T19:09:06.177Z,5.65
2022-09-23T19:11:35.509Z,6.07
2022-09-23T19:14:04.924Z,7.35
2022-09-23T19:16:32.995Z,7.97
2022-09-23T19:19:05.126Z,7.40
2022-09-23T19:21:36.888Z,8.48
2022-09-23T19:24:07.329Z,6.35
2022-09-23T19:26:37.915Z,7.85
2022-09-23T19:29:08.577Z,6.13
2022-09-23T19:31:38.989Z,8.85
2022-09-23T19:34:11.840Z,8.13
2022-09-23T19:36:40.599Z,8.20
2022-09-23T19:39:12.072Z,7.20
2022-09-23T19:41:40.797Z,8.02
2022-09-23T19:44:08.243Z,7.60
2022-09-23T19:46:38.133Z,7.35
2022-09-23T19:49:06.984Z,7.18
2022-09-23T19:54:20.084Z,8.10
2022-09-23T19:56:49.362Z,6.82
2022-09-23T19:59:18.979Z,9.30
2022-09-23T20:01:47.329Z,8.98
2022-09-23T20:04:14.931Z,7.90
2022-09-23T20:06:42.227Z,10.68
2022-09-23T20:09:09.908Z,8.35
2022-09-23T20:11:37.343Z,7.65
2022-09-23T20:14:06.355Z,7.82
2022-09-23T20:16:37.652Z,7.47
2022-09-23T20:19:05.428Z,7.03
2022-09-23T20:21:33.996Z,5.68
2022-09-23T20:24:03.318Z,7.60
2022-09-23T20:26:30.661Z,7.80
2022-09-23T20:28:58.351Z,6.38
2022-09-23T20:31:28.002Z,7.43
2022-09-23T20:33:57.902Z,6.47
2022-09-23T20:36:25.944Z,9.70
2022-09-23T20:38:54.316Z,9.48
2022-09-23T20:41:22.023Z,7.85
2022-09-23T20:43:52.756Z,7.70
2022-09-23T20:46:20.542Z,9.25
2022-09-23T20:48:49.689Z,8.73
2022-09-23T20:51:17.484Z,8.20
2022-09-23T20:53:45.137Z,8.07
2022-09-23T20:56:12.466Z,8.70
2022-09-23T20:58:39.888Z,13.50
2022-09-23T21:01:09.031Z,8.07
2022-09-23T21:03:37.568Z,7.47
2022-09-23T21:06:08.091Z,6.80
2022-09-23T21:08:37.404Z,6.82
2022-09-23T21:11:06.760Z,6.53
2022-09-23T21:13:34.857Z,47.45
2022-09-23T21:16:03.316Z,73.30
2022-09-23T21:18:31.018Z,45.65
2022-09-23T21:20:59.805Z,106.30
2022-09-23T21:23:31.085Z,74.85
2022-09-23T21:26:01.771Z,167.02
2022-09-23T21:28:33.749Z,113.97
2022-09-23T21:31:01.488Z,62.92
2022-09-23T21:33:29.574Z,18.55
2022-09-23T21:35:59.258Z,9.20
2022-09-23T21:38:27.836Z,5.80
2022-09-23T21:40:58.932Z,6.03
2022-09-23T21:43:28.884Z,4.88
2022-09-23T21:45:57.473Z,6.82
2022-09-23T21:48:25.466Z,6.07
2022-09-23T21:51:00.413Z,9.32
2022-09-23T21:53:30.784Z,11.30
2022-09-23T21:56:03.525Z,9.95
2022-09-23T21:58:31.147Z,8.82
2022-09-23T22:00:59.158Z,8.07
2022-09-23T22:03:27.024Z,9.18
2022-09-23T22:06:06.390Z,7.10
2022-09-23T22:08:37.378Z,7.30
2022-09-23T22:11:06.689Z,9.25
2022-09-23T22:13:34.416Z,9.88
2022-09-23T22:16:03.655Z,7.47
2022-09-23T22:18:31.081Z,6.57
2022-09-23T22:20:58.331Z,6.65
2022-09-23T22:23:26.136Z,6.25
2022-09-23T22:26:03.060Z,7.45
2022-09-23T22:28:32.663Z,8.10
2022-09-23T22:30:59.984Z,6.35
2022-09-23T22:33:27.272Z,6.22
2022-09-23T22:36:01.848Z,7.57
2022-09-23T22:38:29.137Z,6.63
2022-09-23T22:40:58.278Z,7.13
2022-09-23T22:43:25.823Z,5.03
2022-09-23T22:45:53.071Z,6.70
2022-09-23T22:48:20.684Z,6.40
2022-09-23T22:50:48.171Z,5.82
2022-09-23T22:53:15.534Z,9.20
2022-09-23T22:55:43.129Z,7.15
2022-09-23T22:58:31.329Z,8.73
2022-09-23T23:00:59.446Z,22.02
2022-09-23T23:03:26.919Z,9.95
2022-09-23T23:05:54.247Z,9.63
2022-09-23T23:08:22.060Z,9.05
2022-09-23T23:10:49.497Z,8.30
2022-09-23T23:13:18.304Z,11.00
2022-09-23T23:15:45.887Z,9.82
2022-09-23T23:18:13.419Z,9.18
2022-09-23T23:20:40.906Z,9.05
2022-09-23T23:23:08.568Z,13.38
2022-09-23T23:25:35.895Z,11.70
2022-09-23T23:28:03.620Z,9.48
2022-09-23T23:30:33.198Z,9.35
2022-09-23T23:33:00.555Z,9.57
2022-09-23T23:35:27.897Z,12.35
2022-09-23T23:37:56.014Z,14.10
2022-09-23T23:40:23.265Z,14.05
2022-09-23T23:42:50.479Z,15.82
2022-09-23T23:45:18.469Z,20.17
2022-09-23T23:47:47.071Z,11.40
2022-09-23T23:50:14.509Z,8.40
2022-09-23T23:52:42.316Z,26.75
2022-09-23T23:55:09.836Z,13.00
2022-09-23T23:57:37.089Z,134.65
